Contact Us:
Email: info@sawbill.com
Phone: (218)663-7150
Fax: (218)663-7980
Mail: 4620 Sawbill Trail
Box 2129
Tofte, MN 55615


Powered by
Movable Type 3.15
 
Sawbill Weather History Archives: November 2003
Current Sawbill Weather History | « October 2003 | December 2003 »


Date

High
Temperature

Low
Temperature

Barometric
Pressure

Relative
Humidity 7AM

9 AM
Temperature

Moisture

Snow

11/30/03 35 19 29.96 72% 21 .17" 2.5"
11/29/03 27 18 29.56 80% 26 0  
11/28/03 23 17 29.72 80% 18 0  
11/27/03 34 21 30.04 76% 21 .13" 2"
11/26/03 36 20 29.92 86% 31 .02" .5"
11/25/03 25 15 29.71 73% 21 .03" .5"
11/24/03 18 6 29.51 77% 15 0  
11/23/03 21 7 29.52 69% 8 .6" 7"
11/22/03 25 21 29.86 71% 21 Trace Trace
11/21/03 32 20 30.16 63% 21 0  
11/20/03 46 24 30.01 63% 26 0  
11/19/03 34 27 29.38 88% 33 0  
11/18/03 47 32 29.50 84% 32 .02" .5"
11/17/03 42 38 29.56 88% 41 Trace  
11/16/03 43 28 29.87 89% 38 Trace  
11/15/03 43 28 30.01 81% 35 0  
11/14/03 46 25 29.90 77% 29 0  
11/13/03 33 17 29.93 74% 26 0  
11/12/03 33 17 30.13 72% 17 .32" 3"
11/11/03 46 28 29.66 82% 33 0  
11/10/03 36 34 29.61 86% 36 Trace  
11/09/03 42 9 30.02 67% 34 0  
11/08/03 27 9 30.34 53% 23 0  
11/07/03 21 6 30.55 67% 9 0  
11/06/03 27 12 30.10 66% 14 .1" 1"
11/05/03 30 13 30.09 69% 13 Trace Trace
11/04/03 28 24 29.99 74% 25 .23" 2"
11/03/03 28 21 30.03 74% 26 Trace Trace
11/02/03 35 21 30.33 60% 21 0  
11/01/03 31 23 30.11 71% 23 0  
 


Home I Trip Planning I Rentals and Outfitting I Reservations I Campgrounds I Sawbill Store I Sawbill News I Contact

© 1997 - 2017, Sawbill Canoe Outfitters, Inc. I Privacy Policy